Архив погоды в Больших Уках

Метеограмма Большие Уки
Среда, 16 Августа
Время местн. Темп Ветер Видим Явления Облачность нижн/средн/верх Атм. давл. Влжн Точка росы ВНГО R Сост. почвы Tg s
Напр Скр Прв ур.ст ур.м изм
18:00 +24.6° З,С-З 4 - 20 км - переменная облачность 756 763 -0.6 45% +12° 1.5 км - - - -
15:00 +23.2° З,Ю-З 2 - 20 км - облачно 757 763 -0.8 60% +15° 1 км - - - -
12:00 +20.5° З 2 - 20 км небо без изменений {ливневые осадки} преимущественно облачно 758 764 -0.4 73% +15.6° 1.5 км - - - -
09:00 +15.8° Ю-З 2 - 20 км небо без изменений {ливневые осадки} облачно 758 765 -0.3 96% +15.1° 1 км 0.7 Влажная (без луж) +14° -
06:00 +13.7° Ю-З 1 - 8 км слабый ливневый дождь облачно 759 765 -0.3 99% +13.5° 1 км - - - -
03:00 +14.5° Ю 1 - 10 км - облачно 759 765 -0.5 85% +12° 1 км - - - -
00:00 +13.8° Ю,Ю-З 1 - 10 км - переменная облачность 759 766 +0.1 89% +12.1° 1 км - - - -
Вторник, 15 Августа
Время местн. Темп Ветер Видим Явления Облачность нижн/средн/верх Атм. давл. Влжн Точка росы ВНГО R Сост. почвы Tg s
Напр Скр Прв ур.ст ур.м изм
21:00 +16.3° штиль 0 - 10 км - облачно с прояснениями 759 766 -0.2 83% +13.4° более 2.5 км 0 - - -
18:00 +22.6° З 2 - 20 км - переменная облачность 759 766 -0.9 48% +11° 1.5 км - - - -
15:00 +22.6° З,Ю-З 1 - 20 км - переменная облачность 760 767 -0.5 48% +11° 1.5 км - - - -
12:00 +20° Ю-З 2 - 20 км - переменная облачность 761 767 -0.5 53% +10.1° 1.5 км - - - -
09:00 +13.7° Ю 1 - 20 км - облачно 761 768 +0.1 90% +12.1° 1 км 0 Сухая (без трещин) - -
06:00 +5.2° штиль 0 - 20 км - преимущественно облачно 761 768 +0.2 100% +5.2° 1 км - - - -
03:00 +6.9° штиль 0 - 10 км - переменная облачность 761 768 +0.4 100% +6.9° более 2.5 км - - - -
00:00 +9.3° штиль 0 - 10 км - облачно с прояснениями 761 767 +0.2 100% +9.3° более 2.5 км - - - -
Понедельник, 14 Августа
Время местн. Темп Ветер Видим Явления Облачность нижн/средн/верх Атм. давл. Влжн Точка росы ВНГО R Сост. почвы Tg s
Напр Скр Прв ур.ст ур.м изм
21:00 +14.4° штиль 0 - 20 км - облачно с прояснениями 760 767 +0.4 87% +12.3° 1 км 0 - - -
18:00 +20.6° С-В 2 - 20 км - переменная облачность 760 766 +0.1 51% +10.1° 1 км - - - -
15:00 +20.4° В,С-В 3 - 20 км - переменная облачность 760 766 +0.2 50% +9.5° 1 км - - - -
12:00 +19.3° В 2 - 20 км - переменная облачность 760 766 +0.8 55% +10.1° 1 км - - - -
09:00 +12.2° С,С-В 2 - 20 км - облачно с прояснениями 759 766 +0.8 92% +10.9° 1 км 0 Сухая (без трещин) +8° -
06:00 +8.2° штиль 0 - 20 км - переменная облачность 758 765 +0.9 100% +8.2° 1 км - - - -
03:00 - +9.4° В 1 - - - - 758 764 +0.9 100% +9.4° - - - - -
00:00 +11.6° В 2 - 10 км - переменная облачность 757 763 +0.8 89% +9.9° более 2.5 км - - - -
Воскресенье, 13 Августа
Время местн. Темп Ветер Видим Явления Облачность нижн/средн/верх Атм. давл. Влжн Точка росы ВНГО R Сост. почвы Tg s
Напр Скр Прв ур.ст ур.м изм
21:00 +14.9° В 2 - 20 км - облачно 756 762 +1.1 75% +10.5° 1 км 0 - - -
18:00 +18.2° В 3 - 20 км - облачно 755 761 +0.5 56% +9.4° 1 км - - - -
15:00 +19.4° В,Ю-В 3 - 20 км - облачно 754 761 +0.5 52% +9.3° 1 км - - - -